Time,TemperatureF,DewpointF,PressureIn,WindDirection,WindDirectionDegrees,WindSpeedMPH,WindSpeedGustMPH,Humidity,HourlyPrecipIn,Conditions,Clouds,dailyrainin,SoftwareType,DateUTC
2013-01-04 00:01:00,28.2,12.0,29.90,SW,225,3.1,4.5,50,0.00,,,0.00,pywws,2013-01-04 05:01:00,
2013-01-04 00:02:00,28.2,12.4,29.90,West,270,3.1,6.0,51,0.00,,,0.00,pywws,2013-01-04 05:02:00,
2013-01-04 00:03:00,28.2,12.4,29.90,West,270,1.6,3.1,51,0.00,,,0.00,pywws,2013-01-04 05:03:00,
2013-01-04 00:06:00,28.2,12.4,29.90,SW,225,1.6,2.2,51,0.00,,,0.00,pywws,2013-01-04 05:06:00,
2013-01-04 00:12:00,27.9,12.1,29.90,West,270,1.6,3.1,51,0.00,,,0.00,pywws,2013-01-04 05:12:00,
2013-01-04 00:18:00,27.5,12.2,29.89,NW,315,3.8,4.5,52,0.00,,,0.00,pywws,2013-01-04 05:18:00,
2013-01-04 00:23:00,28.0,12.7,29.90,SW,225,0.7,2.2,52,0.00,,,0.00,pywws,2013-01-04 05:23:00,
2013-01-04 00:29:00,27.9,12.5,29.89,West,270,0.7,2.2,52,0.00,,,0.00,pywws,2013-01-04 05:29:00,
2013-01-04 00:34:00,28.0,12.7,29.89,SW,225,3.1,3.8,52,0.00,,,0.00,pywws,2013-01-04 05:34:00,
2013-01-04 00:40:00,28.2,12.9,29.88,North,0,2.2,4.5,52,0.00,,,0.00,pywws,2013-01-04 05:40:00,
2013-01-04 00:46:00,28.4,14.7,29.89,SW,225,3.1,5.4,56,0.00,,,0.00,pywws,2013-01-04 05:46:00,
2013-01-04 00:51:00,28.2,12.9,29.88,NW,315,1.6,3.1,52,0.00,,,0.00,pywws,2013-01-04 05:51:00,
2013-01-04 00:57:00,28.0,12.7,29.88,South,180,3.1,5.4,52,0.00,,,0.00,pywws,2013-01-04 05:57:00,
2013-01-04 01:02:00,27.9,13.0,29.88,NW,315,1.6,2.2,53,0.00,,,0.00,pywws,2013-01-04 06:02:00,
2013-01-04 01:08:00,27.5,12.6,29.88,West,270,2.2,3.1,53,0.00,,,0.00,pywws,2013-01-04 06:08:00,
2013-01-04 01:14:00,27.3,12.9,29.88,NW,315,1.6,2.2,54,0.00,,,0.00,pywws,2013-01-04 06:14:00,
2013-01-04 01:19:00,27.5,13.1,29.88,SW,225,0.7,1.6,54,0.00,,,0.00,pywws,2013-01-04 06:19:00,
2013-01-04 01:25:00,27.9,13.4,29.88,West,270,2.2,3.1,54,0.00,,,0.00,pywws,2013-01-04 06:25:00,
2013-01-04 01:30:00,28.0,13.6,29.88,NW,315,0.7,1.6,54,0.00,,,0.00,pywws,2013-01-04 06:30:00,
2013-01-04 01:36:00,27.7,13.2,29.88,NW,315,1.6,3.1,54,0.00,,,0.00,pywws,2013-01-04 06:36:00,
2013-01-04 01:42:00,27.7,13.6,29.88,NW,315,1.6,3.1,55,0.00,,,0.00,pywws,2013-01-04 06:42:00,
2013-01-04 01:47:00,28.0,14.0,29.88,NE,45,1.6,2.2,55,0.00,,,0.00,pywws,2013-01-04 06:47:00,
2013-01-04 01:53:00,28.2,13.7,29.88,NW,315,2.2,3.1,54,0.00,,,0.00,pywws,2013-01-04 06:53:00,
2013-01-04 01:58:00,28.0,13.6,29.88,West,270,2.2,3.8,54,0.00,,,0.00,pywws,2013-01-04 06:58:00,
2013-01-04 02:04:00,28.4,15.5,29.88,North,0,2.2,3.1,58,0.00,,,0.00,pywws,2013-01-04 07:04:00,
2013-01-04 02:10:00,28.4,15.5,29.88,North,-999,0.0,2.2,58,0.00,,,0.00,pywws,2013-01-04 07:10:00,
2013-01-04 02:15:00,28.2,13.7,29.88,North,0,1.6,3.1,54,0.00,,,0.00,pywws,2013-01-04 07:15:00,
2013-01-04 02:21:00,28.2,13.7,29.88,NW,315,2.2,3.1,54,0.00,,,0.00,pywws,2013-01-04 07:21:00,
2013-01-04 02:26:00,28.6,15.7,29.88,NW,315,1.6,2.2,58,0.00,,,0.00,pywws,2013-01-04 07:26:00,
2013-01-04 02:32:00,28.4,15.5,29.88,NW,315,1.6,3.1,58,0.00,,,0.00,pywws,2013-01-04 07:32:00,
2013-01-04 02:38:00,28.0,13.6,29.88,NE,45,2.2,3.8,54,0.00,,,0.00,pywws,2013-01-04 07:38:00,
2013-01-04 02:43:00,28.2,13.7,29.88,NW,315,1.6,2.2,54,0.00,,,0.00,pywws,2013-01-04 07:43:00,
2013-01-04 02:49:00,28.2,13.7,29.88,North,0,1.6,2.2,54,0.00,,,0.00,pywws,2013-01-04 07:49:00,
2013-01-04 02:54:00,28.6,15.7,29.88,NW,315,2.2,5.4,58,0.00,,,0.00,pywws,2013-01-04 07:54:00,
2013-01-04 03:00:00,28.9,16.0,29.88,WNW,292,1.6,2.2,58,0.00,,,0.00,pywws,2013-01-04 08:00:00,
2013-01-04 03:06:00,28.9,15.6,29.88,SW,225,1.6,2.2,57,0.00,,,0.00,pywws,2013-01-04 08:06:00,
2013-01-04 03:11:00,28.8,15.9,29.88,WSW,248,2.2,3.1,58,0.00,,,0.00,pywws,2013-01-04 08:11:00,
2013-01-04 03:17:00,28.4,15.5,29.88,SW,225,2.2,4.5,58,0.00,,,0.00,pywws,2013-01-04 08:17:00,
2013-01-04 03:22:00,28.4,15.9,29.88,NW,315,2.2,3.8,59,0.00,,,0.00,pywws,2013-01-04 08:22:00,
2013-01-04 03:28:00,28.4,15.9,29.88,NW,315,3.1,4.5,59,0.00,,,0.00,pywws,2013-01-04 08:28:00,
2013-01-04 03:34:00,28.4,15.9,29.88,West,270,1.6,2.2,59,0.00,,,0.00,pywws,2013-01-04 08:34:00,
2013-01-04 03:39:00,28.0,14.0,29.88,NW,315,1.6,2.2,55,0.00,,,0.00,pywws,2013-01-04 08:39:00,
2013-01-04 03:45:00,27.7,14.1,29.88,SW,225,1.6,2.2,56,0.00,,,0.00,pywws,2013-01-04 08:45:00,
2013-01-04 03:50:00,27.5,14.3,29.88,NW,315,1.6,2.2,57,0.00,,,0.00,pywws,2013-01-04 08:50:00,
2013-01-04 03:56:00,27.3,14.5,29.88,NE,45,1.6,2.2,58,0.00,,,0.00,pywws,2013-01-04 08:56:00,
2013-01-04 04:02:00,27.3,14.9,29.88,West,270,0.7,2.2,59,0.00,,,0.00,pywws,2013-01-04 09:02:00,
2013-01-04 04:07:00,27.3,14.9,29.88,East,90,1.6,2.2,59,0.00,,,0.00,pywws,2013-01-04 09:07:00,
2013-01-04 04:13:00,27.3,14.9,29.88,SW,225,3.1,4.5,59,0.00,,,0.00,pywws,2013-01-04 09:13:00,
2013-01-04 04:18:00,27.5,15.1,29.87,NNW,338,2.2,3.8,59,0.00,,,0.00,pywws,2013-01-04 09:18:00,
2013-01-04 04:24:00,27.3,14.5,29.87,NW,315,0.7,1.6,58,0.00,,,0.00,pywws,2013-01-04 09:24:00,
2013-01-04 04:30:00,27.0,14.6,29.87,NW,315,0.7,1.6,59,0.00,,,0.00,pywws,2013-01-04 09:30:00,
2013-01-04 04:35:00,26.6,14.2,29.88,North,0,0.7,1.6,59,0.00,,,0.00,pywws,2013-01-04 09:35:00,
2013-01-04 04:41:00,26.2,14.6,29.88,NW,315,0.7,1.6,61,0.00,,,0.00,pywws,2013-01-04 09:41:00,
2013-01-04 04:46:00,26.2,15.0,29.88,North,-999,0.0,0.7,62,0.00,,,0.00,pywws,2013-01-04 09:46:00,
2013-01-04 04:52:00,26.1,14.8,29.88,North,-999,0.0,1.6,62,0.00,,,0.00,pywws,2013-01-04 09:52:00,
2013-01-04 04:58:00,26.4,15.2,29.88,NE,45,0.7,1.6,62,0.00,,,0.00,pywws,2013-01-04 09:58:00,
2013-01-04 05:03:00,26.6,15.0,29.88,North,-999,0.0,0.7,61,0.00,,,0.00,pywws,2013-01-04 10:03:00,
2013-01-04 05:09:00,26.2,15.0,29.88,NW,315,1.6,3.1,62,0.00,,,0.00,pywws,2013-01-04 10:09:00,
2013-01-04 05:14:00,26.2,15.0,29.88,North,0,0.7,1.6,62,0.00,,,0.00,pywws,2013-01-04 10:14:00,
2013-01-04 05:20:00,26.1,14.8,29.88,North,0,0.7,1.6,62,0.00,,,0.00,pywws,2013-01-04 10:20:00,
2013-01-04 05:26:00,26.1,14.8,29.88,North,-999,0.0,0.0,62,0.00,,,0.00,pywws,2013-01-04 10:26:00,
2013-01-04 05:31:00,25.9,14.7,29.88,North,0,0.7,2.2,62,0.00,,,0.00,pywws,2013-01-04 10:31:00,
2013-01-04 05:37:00,26.4,15.2,29.88,West,270,1.6,2.2,62,0.00,,,0.00,pywws,2013-01-04 10:37:00,
2013-01-04 05:42:00,26.4,15.2,29.87,SE,135,0.7,1.6,62,0.00,,,0.00,pywws,2013-01-04 10:42:00,
2013-01-04 05:48:00,26.4,15.2,29.88,West,270,0.7,1.6,62,0.00,,,0.00,pywws,2013-01-04 10:48:00,
2013-01-04 05:54:00,27.0,15.3,29.88,SW,225,1.6,3.1,61,0.00,,,0.00,pywws,2013-01-04 10:54:00,
2013-01-04 05:59:00,27.5,15.8,29.88,NW,315,1.6,3.1,61,0.00,,,0.00,pywws,2013-01-04 10:59:00,
2013-01-04 06:05:00,27.9,16.2,29.88,SSE,158,1.6,3.1,61,0.00,,,0.00,pywws,2013-01-04 11:05:00,
2013-01-04 06:10:00,28.2,16.5,29.88,SSW,202,3.1,5.4,61,0.00,,,0.00,pywws,2013-01-04 11:10:00,
2013-01-04 06:16:00,28.4,18.2,29.88,NW,315,0.7,2.2,65,0.00,,,0.00,pywws,2013-01-04 11:16:00,
2013-01-04 06:22:00,28.4,18.2,29.88,NW,315,3.1,4.5,65,0.00,,,0.00,pywws,2013-01-04 11:22:00,
2013-01-04 06:27:00,28.6,18.3,29.88,North,-999,0.0,1.6,65,0.00,,,0.00,pywws,2013-01-04 11:27:00,
2013-01-04 06:33:00,28.8,18.5,29.88,North,-999,0.0,0.7,65,0.00,,,0.00,pywws,2013-01-04 11:33:00,
2013-01-04 06:38:00,28.8,18.5,29.88,West,270,0.7,2.2,65,0.00,,,0.00,pywws,2013-01-04 11:38:00,
2013-01-04 06:44:00,28.8,18.5,29.88,South,180,1.6,2.2,65,0.00,,,0.00,pywws,2013-01-04 11:44:00,
2013-01-04 06:50:00,29.1,18.8,29.88,West,270,1.6,3.1,65,0.00,,,0.00,pywws,2013-01-04 11:50:00,
2013-01-04 06:55:00,29.3,19.0,29.88,South,180,3.1,4.5,65,0.00,,,0.00,pywws,2013-01-04 11:55:00,
2013-01-04 07:01:00,29.3,19.0,29.88,West,270,0.7,1.6,65,0.00,,,0.00,pywws,2013-01-04 12:01:00,
2013-01-04 07:06:00,29.3,19.0,29.88,SW,225,3.1,3.8,65,0.00,,,0.00,pywws,2013-01-04 12:06:00,
2013-01-04 07:12:00,29.7,19.4,29.88,SW,225,1.6,3.1,65,0.00,,,0.00,pywws,2013-01-04 12:12:00,
2013-01-04 07:18:00,29.8,19.5,29.87,West,270,1.6,2.2,65,0.00,,,0.00,pywws,2013-01-04 12:18:00,
2013-01-04 07:23:00,29.8,19.5,29.88,West,270,3.1,5.4,65,0.00,,,0.00,pywws,2013-01-04 12:23:00,
2013-01-04 07:29:00,30.0,19.7,29.88,North,0,1.6,2.2,65,0.00,,,0.00,pywws,2013-01-04 12:29:00,
2013-01-04 07:34:00,30.0,19.7,29.88,West,270,1.6,3.1,65,0.00,,,0.00,pywws,2013-01-04 12:34:00,
2013-01-04 07:40:00,30.0,19.7,29.88,NW,315,1.6,3.1,65,0.00,,,0.00,pywws,2013-01-04 12:40:00,
2013-01-04 07:46:00,30.0,19.7,29.88,SW,225,3.1,4.5,65,0.00,,,0.00,pywws,2013-01-04 12:46:00,
2013-01-04 07:51:00,30.2,19.5,29.88,SW,225,4.5,6.0,64,0.00,,,0.00,pywws,2013-01-04 12:51:00,
2013-01-04 07:57:00,30.2,19.1,29.88,SW,225,0.7,2.2,63,0.00,,,0.00,pywws,2013-01-04 12:57:00,
2013-01-04 08:02:00,30.4,19.3,29.88,SE,135,3.8,6.0,63,0.00,,,0.00,pywws,2013-01-04 13:02:00,
2013-01-04 08:08:00,30.6,19.1,29.88,SW,225,3.1,3.8,62,0.00,,,0.00,pywws,2013-01-04 13:08:00,
2013-01-04 08:14:00,30.6,19.1,29.88,West,270,1.6,2.2,62,0.00,,,0.00,pywws,2013-01-04 13:14:00,
2013-01-04 08:19:00,30.7,19.3,29.88,SW,225,3.1,4.5,62,0.00,,,0.00,pywws,2013-01-04 13:19:00,
2013-01-04 08:25:00,30.7,19.3,29.88,NW,315,0.7,3.1,62,0.00,,,0.00,pywws,2013-01-04 13:25:00,
2013-01-04 08:30:00,30.7,19.3,29.88,SE,135,3.8,6.0,62,0.00,,,0.00,pywws,2013-01-04 13:30:00,
2013-01-04 08:36:00,30.9,19.5,29.88,NW,315,1.6,3.1,62,0.00,,,0.00,pywws,2013-01-04 13:36:00,
2013-01-04 08:42:00,30.7,19.3,29.88,West,270,1.6,2.2,62,0.00,,,0.00,pywws,2013-01-04 13:42:00,
2013-01-04 08:47:00,30.9,19.1,29.88,WSW,248,1.6,3.1,61,0.00,,,0.00,pywws,2013-01-04 13:47:00,
2013-01-04 08:53:00,31.1,19.2,29.88,West,270,3.1,4.5,61,0.00,,,0.00,pywws,2013-01-04 13:53:00,
2013-01-04 08:58:00,31.3,19.4,29.89,SW,225,2.2,3.8,61,0.00,,,0.00,pywws,2013-01-04 13:58:00,
2013-01-04 09:04:00,31.3,19.4,29.88,North,0,1.6,3.8,61,0.00,,,0.00,pywws,2013-01-04 14:04:00,
2013-01-04 09:10:00,31.5,19.2,29.88,NW,315,2.2,3.8,60,0.00,,,0.00,pywws,2013-01-04 14:10:00,
2013-01-04 09:15:00,31.6,19.4,29.88,West,270,1.6,3.1,60,0.00,,,0.00,pywws,2013-01-04 14:15:00,
2013-01-04 09:21:00,31.8,19.5,29.88,SSE,158,2.2,3.8,60,0.00,,,0.00,pywws,2013-01-04 14:21:00,
2013-01-04 09:26:00,31.8,19.1,29.88,WSW,248,2.2,3.8,59,0.00,,,0.00,pywws,2013-01-04 14:26:00,
2013-01-04 09:32:00,32.0,18.9,29.88,SE,135,3.8,9.8,58,0.00,,,0.00,pywws,2013-01-04 14:32:00,
2013-01-04 09:38:00,32.0,18.9,29.88,West,270,2.2,3.1,58,0.00,,,0.00,pywws,2013-01-04 14:38:00,
2013-01-04 09:43:00,32.2,19.1,29.88,West,270,3.1,4.5,58,0.00,,,0.00,pywws,2013-01-04 14:43:00,
2013-01-04 09:49:00,32.2,18.7,29.88,SW,225,2.2,3.1,57,0.00,,,0.00,pywws,2013-01-04 14:49:00,
2013-01-04 09:54:00,32.2,18.7,29.88,NW,315,4.5,6.9,57,0.00,,,0.00,pywws,2013-01-04 14:54:00,
2013-01-04 10:00:00,32.2,19.1,29.88,West,270,1.6,3.1,58,0.00,,,0.00,pywws,2013-01-04 15:00:00,
2013-01-04 10:06:00,32.2,19.1,29.87,NW,315,3.8,6.0,58,0.00,,,0.00,pywws,2013-01-04 15:06:00,
2013-01-04 10:11:00,32.4,19.3,29.88,West,270,4.5,6.0,58,0.00,,,0.00,pywws,2013-01-04 15:11:00,
2013-01-04 10:17:00,32.5,19.4,29.88,West,270,3.1,4.5,58,0.00,,,0.00,pywws,2013-01-04 15:17:00,
2013-01-04 10:22:00,32.5,19.4,29.87,West,270,3.1,3.8,58,0.00,,,0.00,pywws,2013-01-04 15:22:00,
2013-01-04 10:28:00,32.7,19.6,29.87,West,270,3.8,6.9,58,0.00,,,0.00,pywws,2013-01-04 15:28:00,
2013-01-04 10:34:00,32.9,19.8,29.87,West,270,6.0,8.3,58,0.00,,,0.00,pywws,2013-01-04 15:34:00,
2013-01-04 10:39:00,32.9,19.8,29.86,NW,315,1.6,3.1,58,0.00,,,0.00,pywws,2013-01-04 15:39:00,
2013-01-04 10:45:00,32.9,19.4,29.86,West,270,4.5,9.2,57,0.00,,,0.00,pywws,2013-01-04 15:45:00,
2013-01-04 10:50:00,33.1,19.5,29.86,West,270,2.2,4.5,57,0.00,,,0.00,pywws,2013-01-04 15:50:00,
2013-01-04 10:56:00,33.3,20.1,29.86,West,270,2.2,3.1,58,0.00,,,0.00,pywws,2013-01-04 15:56:00,
2013-01-04 11:02:00,33.4,19.9,29.86,NW,315,6.9,11.4,57,0.00,,,0.00,pywws,2013-01-04 16:02:00,
2013-01-04 11:07:00,33.3,19.7,29.85,NW,315,3.1,6.0,57,0.00,,,0.00,pywws,2013-01-04 16:07:00,
2013-01-04 11:13:00,33.4,19.9,29.85,NW,315,4.5,8.3,57,0.00,,,0.00,pywws,2013-01-04 16:13:00,
2013-01-04 11:18:00,33.6,20.0,29.85,North,0,3.8,5.4,57,0.00,,,0.00,pywws,2013-01-04 16:18:00,
2013-01-04 11:24:00,33.8,19.4,29.84,NW,315,4.5,6.9,55,0.00,,,0.00,pywws,2013-01-04 16:24:00,
2013-01-04 11:30:00,34.3,19.9,29.84,NW,315,5.4,6.9,55,0.00,,,0.00,pywws,2013-01-04 16:30:00,
2013-01-04 11:35:00,35.4,20.4,29.83,NW,315,1.6,3.1,54,0.00,,,0.00,pywws,2013-01-04 16:35:00,
2013-01-04 11:41:00,35.8,19.4,29.83,South,180,3.8,7.6,51,0.00,,,0.00,pywws,2013-01-04 16:41:00,
2013-01-04 11:46:00,34.9,19.1,29.83,North,0,4.5,8.3,52,0.00,,,0.00,pywws,2013-01-04 16:46:00,
2013-01-04 11:52:00,34.7,18.9,29.82,SW,225,3.8,6.9,52,0.00,,,0.00,pywws,2013-01-04 16:52:00,
2013-01-04 11:58:00,34.3,19.0,29.82,SE,135,5.4,6.9,53,0.00,,,0.00,pywws,2013-01-04 16:58:00,
2013-01-04 12:03:00,34.2,18.8,29.82,SW,225,3.8,7.6,53,0.00,,,0.00,pywws,2013-01-04 17:03:00,
2013-01-04 12:09:00,34.3,19.0,29.82,North,0,2.2,5.4,53,0.00,,,0.00,pywws,2013-01-04 17:09:00,
2013-01-04 12:14:00,34.3,19.0,29.81,South,180,4.5,6.0,53,0.00,,,0.00,pywws,2013-01-04 17:14:00,
2013-01-04 12:20:00,34.3,19.0,29.81,NW,315,1.6,2.2,53,0.00,,,0.00,pywws,2013-01-04 17:20:00,
2013-01-04 12:26:00,34.2,18.8,29.81,NW,315,1.6,3.8,53,0.00,,,0.00,pywws,2013-01-04 17:26:00,
2013-01-04 12:31:00,34.3,19.0,29.81,South,180,3.1,4.5,53,0.00,,,0.00,pywws,2013-01-04 17:31:00,
2013-01-04 12:37:00,34.5,19.2,29.80,NW,315,3.1,4.5,53,0.00,,,0.00,pywws,2013-01-04 17:37:00,
2013-01-04 12:42:00,34.3,18.6,29.80,NW,315,3.8,5.4,52,0.00,,,0.00,pywws,2013-01-04 17:42:00,
2013-01-04 12:48:00,34.9,19.5,29.80,West,270,3.1,4.5,53,0.00,,,0.00,pywws,2013-01-04 17:48:00,
2013-01-04 12:54:00,35.2,19.4,29.80,South,180,2.2,3.8,52,0.00,,,0.00,pywws,2013-01-04 17:54:00,
2013-01-04 12:59:00,35.6,18.3,29.80,West,270,5.4,9.2,49,0.00,,,0.00,pywws,2013-01-04 17:59:00,
2013-01-04 13:05:00,35.2,19.4,29.80,NW,315,6.0,9.2,52,0.00,,,0.00,pywws,2013-01-04 18:05:00,
2013-01-04 13:10:00,35.6,18.3,29.79,South,180,3.8,7.6,49,0.00,,,0.00,pywws,2013-01-04 18:10:00,
2013-01-04 13:16:00,37.6,21.1,29.79,West,270,6.0,8.3,51,0.00,,,0.00,pywws,2013-01-04 18:16:00,
2013-01-04 13:22:00,38.1,21.1,29.79,SW,225,3.8,7.6,50,0.00,,,0.00,pywws,2013-01-04 18:22:00,
2013-01-04 13:27:00,39.7,21.2,29.78,North,0,4.5,6.9,47,0.00,,,0.00,pywws,2013-01-04 18:27:00,
2013-01-04 13:33:00,40.1,21.0,29.78,SW,225,3.1,4.5,46,0.00,,,0.00,pywws,2013-01-04 18:33:00,
2013-01-04 13:38:00,39.9,20.3,29.78,SW,225,2.2,3.1,45,0.00,,,0.00,pywws,2013-01-04 18:38:00,
2013-01-04 13:44:00,40.8,21.7,29.78,West,270,2.2,5.4,46,0.00,,,0.00,pywws,2013-01-04 18:44:00,
2013-01-04 13:50:00,40.6,21.0,29.78,SW,225,3.8,6.0,45,0.00,,,0.00,pywws,2013-01-04 18:50:00,
2013-01-04 13:55:00,39.6,19.5,29.78,ESE,112,3.1,4.5,44,0.00,,,0.00,pywws,2013-01-04 18:55:00,
2013-01-04 14:01:00,39.2,19.7,29.78,SE,135,6.0,9.8,45,0.00,,,0.00,pywws,2013-01-04 19:01:00,
2013-01-04 14:06:00,39.6,20.0,29.78,SW,225,3.8,8.3,45,0.00,,,0.00,pywws,2013-01-04 19:06:00,
2013-01-04 14:12:00,39.7,20.2,29.78,SSW,202,6.0,8.3,45,0.00,,,0.00,pywws,2013-01-04 19:12:00,
2013-01-04 14:18:00,40.8,20.6,29.78,NW,315,3.8,6.9,44,0.00,,,0.00,pywws,2013-01-04 19:18:00,
2013-01-04 14:23:00,40.3,20.1,29.77,North,0,3.8,6.9,44,0.00,,,0.00,pywws,2013-01-04 19:23:00,
2013-01-04 14:29:00,41.0,20.2,29.77,WSW,248,4.5,6.0,43,0.00,,,0.00,pywws,2013-01-04 19:29:00,
2013-01-04 14:34:00,41.4,20.0,29.77,West,270,2.2,3.8,42,0.00,,,0.00,pywws,2013-01-04 19:34:00,
2013-01-04 14:40:00,43.0,21.5,29.78,SE,135,3.1,6.0,42,0.00,,,0.00,pywws,2013-01-04 19:40:00,
2013-01-04 14:46:00,41.7,19.2,29.77,WNW,292,3.8,8.3,40,0.00,,,0.00,pywws,2013-01-04 19:46:00,
2013-01-04 14:51:00,41.5,19.0,29.78,SW,225,2.2,4.5,40,0.00,,,0.00,pywws,2013-01-04 19:51:00,
2013-01-04 14:57:00,41.0,20.2,29.77,NNW,338,3.1,6.9,43,0.00,,,0.00,pywws,2013-01-04 19:57:00,
2013-01-04 15:02:00,41.5,20.7,29.77,NE,45,2.2,3.8,43,0.00,,,0.00,pywws,2013-01-04 20:02:00,
2013-01-04 15:08:00,41.2,18.7,29.77,East,90,3.8,6.0,40,0.00,,,0.00,pywws,2013-01-04 20:08:00,
2013-01-04 15:14:00,39.7,19.6,29.77,West,270,3.1,4.5,44,0.00,,,0.00,pywws,2013-01-04 20:14:00,
2013-01-04 15:19:00,39.6,20.0,29.77,South,180,2.2,3.1,45,0.00,,,0.00,pywws,2013-01-04 20:19:00,
2013-01-04 15:25:00,39.0,19.5,29.77,South,180,4.5,8.3,45,0.00,,,0.00,pywws,2013-01-04 20:25:00,
2013-01-04 15:30:00,37.6,18.7,29.77,South,180,4.5,6.9,46,0.00,,,0.00,pywws,2013-01-04 20:30:00,
2013-01-04 15:36:00,36.9,16.5,29.77,ESE,112,6.0,8.3,43,0.00,,,0.00,pywws,2013-01-04 20:36:00,
2013-01-04 15:42:00,36.3,16.0,29.77,NNW,338,3.8,7.6,43,0.00,,,0.00,pywws,2013-01-04 20:42:00,
2013-01-04 15:47:00,36.9,16.5,29.77,WNW,292,2.2,3.8,43,0.00,,,0.00,pywws,2013-01-04 20:47:00,
2013-01-04 15:53:00,36.7,16.8,29.77,NNW,338,1.6,3.8,44,0.00,,,0.00,pywws,2013-01-04 20:53:00,
2013-01-04 15:58:00,35.8,16.0,29.77,SW,225,2.2,3.1,44,0.00,,,0.00,pywws,2013-01-04 20:58:00,
2013-01-04 16:04:00,35.4,16.7,29.77,West,270,2.2,3.1,46,0.00,,,0.00,pywws,2013-01-04 21:04:00,
2013-01-04 16:10:00,35.4,16.7,29.77,NW,315,2.2,3.1,46,0.00,,,0.00,pywws,2013-01-04 21:10:00,
2013-01-04 16:15:00,35.1,16.4,29.77,South,180,3.8,5.4,46,0.00,,,0.00,pywws,2013-01-04 21:15:00,
2013-01-04 16:21:00,34.7,16.1,29.76,SW,225,1.6,2.2,46,0.00,,,0.00,pywws,2013-01-04 21:21:00,
2013-01-04 16:26:00,34.2,16.5,29.77,SW,225,3.8,7.6,48,0.00,,,0.00,pywws,2013-01-04 21:26:00,
2013-01-04 16:32:00,34.2,17.0,29.76,NNW,338,2.2,5.4,49,0.00,,,0.00,pywws,2013-01-04 21:32:00,
2013-01-04 16:38:00,34.0,15.9,29.77,West,270,4.5,6.0,47,0.00,,,0.00,pywws,2013-01-04 21:38:00,
2013-01-04 16:43:00,34.0,15.9,29.77,West,270,3.1,3.8,47,0.00,,,0.00,pywws,2013-01-04 21:43:00,
2013-01-04 16:49:00,33.6,16.5,29.77,NW,315,1.6,3.8,49,0.00,,,0.00,pywws,2013-01-04 21:49:00,
2013-01-04 16:54:00,33.4,16.4,29.77,West,270,2.2,3.8,49,0.00,,,0.00,pywws,2013-01-04 21:54:00,
2013-01-04 17:00:00,33.4,16.4,29.77,WSW,248,5.4,9.2,49,0.00,,,0.00,pywws,2013-01-04 22:00:00,
2013-01-04 17:06:00,33.6,16.5,29.77,SW,225,3.1,5.4,49,0.00,,,0.00,pywws,2013-01-04 22:06:00,
2013-01-04 17:11:00,33.3,16.7,29.77,SW,225,3.1,6.9,50,0.00,,,0.00,pywws,2013-01-04 22:11:00,
2013-01-04 17:17:00,33.3,16.2,29.77,NW,315,2.2,3.8,49,0.00,,,0.00,pywws,2013-01-04 22:17:00,
2013-01-04 17:22:00,33.3,16.7,29.77,WNW,292,3.1,5.4,50,0.00,,,0.00,pywws,2013-01-04 22:22:00,
2013-01-04 17:28:00,33.3,16.2,29.78,West,270,3.1,5.4,49,0.00,,,0.00,pywws,2013-01-04 22:28:00,
2013-01-04 17:34:00,33.1,16.5,29.78,SW,225,4.5,6.9,50,0.00,,,0.00,pywws,2013-01-04 22:34:00,
2013-01-04 17:39:00,32.9,16.3,29.78,NW,315,2.2,3.1,50,0.00,,,0.00,pywws,2013-01-04 22:39:00,
2013-01-04 17:45:00,32.9,16.3,29.78,West,270,3.1,4.5,50,0.00,,,0.00,pywws,2013-01-04 22:45:00,
2013-01-04 17:50:00,32.7,16.2,29.78,WSW,248,2.2,3.8,50,0.00,,,0.00,pywws,2013-01-04 22:50:00,
2013-01-04 17:56:00,32.4,16.3,29.78,NW,315,0.7,2.2,51,0.00,,,0.00,pywws,2013-01-04 22:56:00,
2013-01-04 18:02:00,32.4,16.3,29.78,NW,315,1.6,3.1,51,0.00,,,0.00,pywws,2013-01-04 23:02:00,
2013-01-04 18:07:00,32.4,16.3,29.78,West,270,1.6,3.1,51,0.00,,,0.00,pywws,2013-01-04 23:07:00,
2013-01-04 18:13:00,32.4,16.3,29.78,NW,315,3.1,5.4,51,0.00,,,0.00,pywws,2013-01-04 23:13:00,
2013-01-04 18:18:00,32.4,16.7,29.78,SE,135,0.7,2.2,52,0.00,,,0.00,pywws,2013-01-04 23:18:00,
2013-01-04 18:24:00,32.0,16.4,29.78,South,180,3.1,4.5,52,0.00,,,0.00,pywws,2013-01-04 23:24:00,
2013-01-04 18:30:00,32.0,16.8,29.78,South,180,3.8,4.5,53,0.00,,,0.00,pywws,2013-01-04 23:30:00,
2013-01-04 18:35:00,32.0,16.8,29.77,NNW,338,1.6,3.1,53,0.00,,,0.00,pywws,2013-01-04 23:35:00,
2013-01-04 18:41:00,31.6,16.9,29.78,South,180,2.2,3.8,54,0.00,,,0.00,pywws,2013-01-04 23:41:00,
2013-01-04 18:46:00,31.6,16.9,29.78,South,180,0.7,1.6,54,0.00,,,0.00,pywws,2013-01-04 23:46:00,
2013-01-04 18:52:00,31.3,16.6,29.78,West,270,3.1,5.4,54,0.00,,,0.00,pywws,2013-01-04 23:52:00,
2013-01-04 18:58:00,31.3,17.0,29.78,North,0,1.6,3.8,55,0.00,,,0.00,pywws,2013-01-04 23:58:00,
2013-01-04 19:03:00,31.3,17.0,29.78,West,270,0.7,1.6,55,0.00,,,0.00,pywws,2013-01-05 00:03:00,
2013-01-04 19:09:00,31.3,17.0,29.78,West,270,2.2,4.5,55,0.00,,,0.00,pywws,2013-01-05 00:09:00,
2013-01-04 19:14:00,31.5,16.8,29.78,NW,315,4.5,6.0,54,0.00,,,0.00,pywws,2013-01-05 00:14:00,
2013-01-04 19:20:00,31.3,17.0,29.79,NW,315,3.1,4.5,55,0.00,,,0.00,pywws,2013-01-05 00:20:00,
2013-01-04 19:26:00,31.3,17.0,29.78,South,180,3.1,4.5,55,0.00,,,0.00,pywws,2013-01-05 00:26:00,
2013-01-04 19:31:00,31.5,16.8,29.79,SW,225,2.2,3.1,54,0.00,,,0.00,pywws,2013-01-05 00:31:00,
2013-01-04 19:37:00,31.6,16.9,29.79,South,180,2.2,3.8,54,0.00,,,0.00,pywws,2013-01-05 00:37:00,
2013-01-04 19:42:00,31.1,16.8,29.79,West,270,2.2,3.8,55,0.00,,,0.00,pywws,2013-01-05 00:42:00,
2013-01-04 19:48:00,31.1,16.8,29.79,West,270,3.1,6.0,55,0.00,,,0.00,pywws,2013-01-05 00:48:00,
2013-01-04 19:54:00,31.3,17.0,29.79,NW,315,3.1,6.0,55,0.00,,,0.00,pywws,2013-01-05 00:54:00,
2013-01-04 19:59:00,31.3,16.6,29.79,NW,315,3.1,6.0,54,0.00,,,0.00,pywws,2013-01-05 00:59:00,
2013-01-04 20:05:00,31.3,16.6,29.79,West,270,2.2,4.5,54,0.00,,,0.00,pywws,2013-01-05 01:05:00,
2013-01-04 20:10:00,30.9,16.7,29.79,NW,315,1.6,2.2,55,0.00,,,0.00,pywws,2013-01-05 01:10:00,
2013-01-04 20:16:00,31.1,16.4,29.79,NW,315,2.2,3.8,54,0.00,,,0.00,pywws,2013-01-05 01:16:00,
2013-01-04 20:22:00,31.3,16.6,29.80,NW,315,1.6,2.2,54,0.00,,,0.00,pywws,2013-01-05 01:22:00,
2013-01-04 20:27:00,31.1,16.4,29.79,NW,315,2.2,3.8,54,0.00,,,0.00,pywws,2013-01-05 01:27:00,
2013-01-04 20:33:00,31.1,16.4,29.79,West,270,3.1,6.0,54,0.00,,,0.00,pywws,2013-01-05 01:33:00,
2013-01-04 20:38:00,31.3,16.6,29.79,North,0,1.6,2.2,54,0.00,,,0.00,pywws,2013-01-05 01:38:00,
2013-01-04 20:44:00,30.9,16.3,29.79,NW,315,2.2,3.8,54,0.00,,,0.00,pywws,2013-01-05 01:44:00,
2013-01-04 20:50:00,30.7,16.1,29.79,NE,45,0.7,2.2,54,0.00,,,0.00,pywws,2013-01-05 01:50:00,
2013-01-04 20:55:00,30.6,16.3,29.79,SSE,158,1.6,3.8,55,0.00,,,0.00,pywws,2013-01-05 01:55:00,
2013-01-04 21:01:00,30.4,16.2,29.79,NW,315,1.6,2.2,55,0.00,,,0.00,pywws,2013-01-05 02:01:00,
2013-01-04 21:06:00,30.2,16.0,29.79,West,270,2.2,3.1,55,0.00,,,0.00,pywws,2013-01-05 02:06:00,
2013-01-04 21:12:00,30.0,16.2,29.79,NW,315,0.7,3.1,56,0.00,,,0.00,pywws,2013-01-05 02:12:00,
2013-01-04 21:18:00,30.0,16.2,29.79,WSW,248,2.2,3.8,56,0.00,,,0.00,pywws,2013-01-05 02:18:00,
2013-01-04 21:23:00,30.2,16.0,29.79,SW,225,1.6,2.2,55,0.00,,,0.00,pywws,2013-01-05 02:23:00,
2013-01-04 21:29:00,30.2,16.0,29.79,NW,315,2.2,4.5,55,0.00,,,0.00,pywws,2013-01-05 02:29:00,
2013-01-04 21:34:00,30.4,16.2,29.80,NW,315,1.6,1.6,55,0.00,,,0.00,pywws,2013-01-05 02:34:00,
2013-01-04 21:40:00,30.4,16.2,29.79,WNW,292,0.7,1.6,55,0.00,,,0.00,pywws,2013-01-05 02:40:00,
2013-01-04 21:46:00,29.8,16.1,29.80,North,-999,0.0,0.7,56,0.00,,,0.00,pywws,2013-01-05 02:46:00,
2013-01-04 21:51:00,29.5,15.7,29.80,NW,315,1.6,3.1,56,0.00,,,0.00,pywws,2013-01-05 02:51:00,
2013-01-04 21:57:00,29.7,16.3,29.80,NW,315,0.7,1.6,57,0.00,,,0.00,pywws,2013-01-05 02:57:00,
2013-01-04 22:02:00,29.5,16.1,29.80,West,270,0.7,1.6,57,0.00,,,0.00,pywws,2013-01-05 03:02:00,
2013-01-04 22:08:00,29.3,16.0,29.80,NW,315,0.7,2.2,57,0.00,,,0.00,pywws,2013-01-05 03:08:00,
2013-01-04 22:14:00,29.1,15.8,29.80,North,0,2.2,3.1,57,0.00,,,0.00,pywws,2013-01-05 03:14:00,
2013-01-04 22:19:00,29.3,16.4,29.80,SW,225,2.2,3.8,58,0.00,,,0.00,pywws,2013-01-05 03:19:00,
2013-01-04 22:25:00,29.1,15.8,29.80,North,0,1.6,3.1,57,0.00,,,0.00,pywws,2013-01-05 03:25:00,
2013-01-04 22:30:00,29.5,16.1,29.81,West,270,3.1,4.5,57,0.00,,,0.00,pywws,2013-01-05 03:30:00,
2013-01-04 22:36:00,30.2,16.0,29.81,NW,315,1.6,2.2,55,0.00,,,0.00,pywws,2013-01-05 03:36:00,
2013-01-04 22:42:00,29.5,15.7,29.80,NW,315,0.7,2.2,56,0.00,,,0.00,pywws,2013-01-05 03:42:00,
2013-01-04 22:47:00,29.5,15.7,29.81,NW,315,2.2,4.5,56,0.00,,,0.00,pywws,2013-01-05 03:47:00,
2013-01-04 22:53:00,30.0,16.2,29.81,North,0,1.6,3.1,56,0.00,,,0.00,pywws,2013-01-05 03:53:00,
2013-01-04 22:58:00,29.8,16.1,29.81,SW,225,1.6,3.1,56,0.00,,,0.00,pywws,2013-01-05 03:58:00,
2013-01-04 23:04:00,29.8,16.1,29.81,NW,315,2.2,4.5,56,0.00,,,0.00,pywws,2013-01-05 04:04:00,
2013-01-04 23:10:00,29.8,16.1,29.81,West,270,2.2,4.5,56,0.00,,,0.00,pywws,2013-01-05 04:10:00,
2013-01-04 23:15:00,30.2,15.6,29.81,North,0,2.2,3.8,54,0.00,,,0.00,pywws,2013-01-05 04:15:00,
2013-01-04 23:21:00,30.6,15.5,29.81,NE,45,3.1,7.6,53,0.00,,,0.00,pywws,2013-01-05 04:21:00,
2013-01-04 23:26:00,30.9,15.4,29.81,NW,315,2.2,4.5,52,0.00,,,0.00,pywws,2013-01-05 04:26:00,
2013-01-04 23:32:00,31.1,15.1,29.82,West,270,2.2,3.8,51,0.00,,,0.00,pywws,2013-01-05 04:32:00,
2013-01-04 23:38:00,31.1,15.1,29.82,West,270,1.6,3.8,51,0.00,,,0.00,pywws,2013-01-05 04:38:00,
2013-01-04 23:43:00,30.7,15.2,29.82,West,270,2.2,3.1,52,0.00,,,0.00,pywws,2013-01-05 04:43:00,
2013-01-04 23:49:00,30.9,14.9,29.82,SW,225,3.8,11.4,51,0.00,,,0.00,pywws,2013-01-05 04:49:00,
2013-01-04 23:54:00,31.1,15.1,29.82,NW,315,3.1,6.9,51,0.00,,,0.00,pywws,2013-01-05 04:54:00,
2013-01-04 23:59:00,30.6,15.1,29.82,ENE,68,2.2,3.1,52,0.00,,,0.00,pywws,2013-01-05 04:59:00,